createdAt,value
2022-11-08T00:00:09.829Z,13.10
2022-11-08T00:02:36.579Z,13.10
2022-11-08T00:05:22.185Z,13.10
2022-11-08T00:08:07.047Z,13.10
2022-11-08T00:10:52.199Z,13.00
2022-11-08T00:13:37.469Z,13.00
2022-11-08T00:16:05.486Z,13.00
2022-11-08T00:18:32.090Z,13.00
2022-11-08T00:21:03.436Z,13.00
2022-11-08T00:23:30.261Z,13.00
2022-11-08T00:25:57.127Z,13.00
2022-11-08T00:28:23.720Z,13.00
2022-11-08T00:30:50.399Z,13.00
2022-11-08T00:33:19.596Z,13.00
2022-11-08T00:35:46.160Z,13.00
2022-11-08T00:38:12.796Z,13.00
2022-11-08T00:40:39.505Z,13.00
2022-11-08T00:43:06.146Z,13.00
2022-11-08T00:45:32.722Z,13.00
2022-11-08T00:47:59.367Z,13.00
2022-11-08T00:50:26.078Z,12.90
2022-11-08T00:52:52.631Z,13.00
2022-11-08T00:55:19.202Z,13.00
2022-11-08T00:58:01.098Z,13.00
2022-11-08T01:00:28.138Z,13.00
2022-11-08T01:03:14.783Z,13.00
2022-11-08T01:05:41.870Z,13.00
2022-11-08T01:08:09.315Z,12.90
2022-11-08T01:10:36.419Z,12.90
2022-11-08T01:13:03.495Z,12.90
2022-11-08T01:15:44.547Z,12.90
2022-11-08T01:18:12.722Z,12.90
2022-11-08T01:20:40.349Z,12.90
2022-11-08T01:23:07.346Z,12.90
2022-11-08T01:25:44.892Z,12.90
2022-11-08T01:28:12.813Z,12.90
2022-11-08T01:30:41.388Z,12.90
2022-11-08T01:33:08.404Z,12.90
2022-11-08T01:35:36.263Z,12.80
2022-11-08T01:38:03.884Z,12.80
2022-11-08T01:40:31.156Z,12.80
2022-11-08T01:42:57.838Z,12.90
2022-11-08T01:46:02.194Z,12.80
2022-11-08T01:48:29.038Z,12.80
2022-11-08T01:50:59.428Z,12.80
2022-11-08T01:53:28.096Z,12.80
2022-11-08T01:55:55.158Z,12.80
2022-11-08T01:58:26.324Z,12.80
2022-11-08T02:00:53.233Z,12.80
2022-11-08T02:03:20.806Z,12.80
2022-11-08T02:05:48.032Z,12.70
2022-11-08T02:08:34.837Z,12.70
2022-11-08T02:11:02.582Z,12.80
2022-11-08T02:13:30.805Z,12.80
2022-11-08T02:15:58.156Z,12.80
2022-11-08T02:18:28.105Z,12.70
2022-11-08T02:21:06.515Z,12.70
2022-11-08T02:23:42.117Z,12.70
2022-11-08T02:26:09.867Z,12.70
2022-11-08T02:28:44.230Z,12.70
2022-11-08T02:31:12.372Z,12.70
2022-11-08T02:33:39.566Z,12.70
2022-11-08T02:36:08.189Z,12.70
2022-11-08T02:38:40.553Z,12.70
2022-11-08T02:41:07.361Z,12.70
2022-11-08T02:43:33.962Z,12.70
2022-11-08T02:46:01.277Z,12.70
2022-11-08T02:48:28.034Z,12.70
2022-11-08T02:50:55.071Z,12.70
2022-11-08T02:53:21.737Z,12.70
2022-11-08T02:55:48.309Z,12.70
2022-11-08T02:58:15.381Z,12.70
2022-11-08T03:00:42.244Z,12.70
2022-11-08T03:03:08.989Z,12.70
2022-11-08T03:05:35.688Z,12.60
2022-11-08T03:08:02.320Z,12.60
2022-11-08T03:10:30.105Z,12.60
2022-11-08T03:13:03.267Z,12.60
2022-11-08T03:15:30.231Z,12.60
2022-11-08T03:17:58.187Z,12.60
2022-11-08T03:20:29.605Z,12.50
2022-11-08T03:23:00.858Z,12.60
2022-11-08T03:25:27.524Z,12.60
2022-11-08T03:27:54.184Z,12.60
2022-11-08T03:30:21.207Z,12.50
2022-11-08T03:32:49.884Z,12.50
2022-11-08T03:35:16.600Z,12.50
2022-11-08T03:37:50.536Z,12.60
2022-11-08T03:40:18.376Z,12.60
2022-11-08T03:42:45.317Z,12.50
2022-11-08T03:45:12.338Z,12.50
2022-11-08T03:47:40.154Z,12.50
2022-11-08T03:50:08.102Z,12.50
2022-11-08T03:52:42.323Z,12.60
2022-11-08T03:55:10.606Z,12.50
2022-11-08T03:57:38.473Z,12.50
2022-11-08T04:00:06.413Z,12.50
2022-11-08T04:02:33.425Z,12.50
2022-11-08T04:05:00.723Z,12.60
2022-11-08T04:07:28.757Z,12.60
2022-11-08T04:09:56.071Z,12.50
2022-11-08T04:12:41.868Z,12.50
2022-11-08T04:15:20.902Z,12.50
2022-11-08T04:18:08.268Z,12.50
2022-11-08T04:20:56.985Z,12.50
2022-11-08T04:23:23.557Z,12.50
2022-11-08T04:25:58.596Z,12.50
2022-11-08T04:28:30.700Z,12.50
2022-11-08T04:31:00.580Z,12.40
2022-11-08T04:33:27.407Z,12.40
2022-11-08T04:35:54.246Z,12.40
2022-11-08T04:38:21.484Z,12.50
2022-11-08T04:40:48.495Z,12.40
2022-11-08T04:43:15.268Z,12.40
2022-11-08T04:45:41.919Z,12.40
2022-11-08T04:48:08.654Z,12.40
2022-11-08T04:50:36.240Z,12.40
2022-11-08T04:53:02.908Z,12.40
2022-11-08T04:55:29.483Z,12.40
2022-11-08T04:57:58.048Z,12.40
2022-11-08T05:00:24.748Z,12.40
2022-11-08T05:02:51.363Z,12.40
2022-11-08T05:05:18.175Z,12.30
2022-11-08T05:07:44.728Z,12.30
2022-11-08T05:10:11.318Z,12.30
2022-11-08T05:12:37.926Z,12.30
2022-11-08T05:15:04.846Z,12.30
2022-11-08T05:17:31.432Z,12.30
2022-11-08T05:20:16.410Z,12.30
2022-11-08T05:23:01.799Z,12.30
2022-11-08T05:25:28.365Z,12.30
2022-11-08T05:27:54.992Z,12.30
2022-11-08T05:30:21.540Z,12.20
2022-11-08T05:32:51.694Z,12.20
2022-11-08T05:35:21.660Z,12.20
2022-11-08T05:37:48.986Z,12.30
2022-11-08T05:40:15.675Z,12.30
2022-11-08T05:42:42.326Z,12.30
2022-11-08T05:45:09.714Z,12.30
2022-11-08T05:47:36.995Z,12.20
2022-11-08T05:50:04.105Z,12.20
2022-11-08T05:52:30.944Z,12.20
2022-11-08T05:54:57.505Z,12.20
2022-11-08T05:57:24.045Z,12.20
2022-11-08T05:59:50.841Z,12.20
2022-11-08T06:02:18.341Z,12.20
2022-11-08T06:04:44.979Z,12.30
2022-11-08T06:07:11.633Z,12.20
2022-11-08T06:09:38.211Z,12.20
2022-11-08T06:12:05.177Z,12.20
2022-11-08T06:14:31.975Z,12.20
2022-11-08T06:16:58.575Z,12.20
2022-11-08T06:19:25.345Z,12.10
2022-11-08T06:21:51.893Z,12.20
2022-11-08T06:24:18.539Z,12.20
2022-11-08T06:26:45.121Z,12.20
2022-11-08T06:29:14.947Z,12.20
2022-11-08T06:31:43.193Z,12.20
2022-11-08T06:34:10.243Z,12.20
2022-11-08T06:36:36.970Z,12.10
2022-11-08T06:39:03.658Z,12.10
2022-11-08T06:41:30.450Z,12.10
2022-11-08T06:43:57.034Z,12.10
2022-11-08T06:46:23.616Z,12.10
2022-11-08T06:48:50.372Z,12.10
2022-11-08T06:51:17.064Z,12.10
2022-11-08T06:53:44.263Z,12.10
2022-11-08T06:56:11.496Z,12.10
2022-11-08T06:58:38.680Z,12.10
2022-11-08T07:01:07.127Z,12.10
2022-11-08T07:03:34.178Z,12.10
2022-11-08T07:06:04.905Z,12.00
2022-11-08T07:08:32.630Z,12.00
2022-11-08T07:10:59.937Z,12.10
2022-11-08T07:13:26.457Z,12.10
2022-11-08T07:15:53.051Z,12.10
2022-11-08T07:18:20.012Z,12.00
2022-11-08T07:20:47.300Z,12.00
2022-11-08T07:23:14.030Z,12.10
2022-11-08T07:25:40.634Z,12.10
2022-11-08T07:28:16.689Z,12.10
2022-11-08T07:30:43.790Z,12.10
2022-11-08T07:33:10.590Z,12.00
2022-11-08T07:35:37.291Z,12.00
2022-11-08T07:38:03.887Z,12.00
2022-11-08T07:40:30.641Z,12.00
2022-11-08T07:43:14.743Z,12.00
2022-11-08T07:45:42.344Z,12.10
2022-11-08T07:48:12.814Z,12.10
2022-11-08T07:50:41.809Z,12.10
2022-11-08T07:53:08.398Z,12.00
2022-11-08T07:55:38.801Z,12.00
2022-11-08T07:58:06.247Z,12.10
2022-11-08T08:00:36.560Z,12.00
2022-11-08T08:03:05.298Z,12.00
2022-11-08T08:05:35.488Z,12.00
2022-11-08T08:08:02.481Z,12.00
2022-11-08T08:10:30.259Z,12.10
2022-11-08T08:12:57.466Z,12.10
2022-11-08T08:15:24.977Z,12.10
2022-11-08T08:17:51.806Z,12.10
2022-11-08T08:20:19.439Z,12.10
2022-11-08T08:22:47.763Z,12.10
2022-11-08T08:25:15.286Z,12.10
2022-11-08T08:27:53.912Z,12.10
2022-11-08T08:30:20.910Z,12.10
2022-11-08T08:33:02.433Z,12.10
2022-11-08T08:35:36.614Z,12.10
2022-11-08T08:38:05.025Z,12.20
2022-11-08T08:40:33.015Z,12.20
2022-11-08T08:43:03.143Z,12.20
2022-11-08T08:45:30.658Z,12.20
2022-11-08T08:47:58.155Z,12.20
2022-11-08T08:50:27.992Z,12.20
2022-11-08T08:53:01.780Z,12.20
2022-11-08T08:55:29.012Z,12.20
2022-11-08T08:57:55.847Z,12.20
2022-11-08T09:03:10.251Z,12.20
2022-11-08T09:05:37.900Z,12.20
2022-11-08T09:08:07.511Z,12.20
2022-11-08T09:10:34.059Z,12.30
2022-11-08T09:13:02.078Z,12.30
2022-11-08T09:15:29.568Z,12.30
2022-11-08T09:17:57.223Z,12.30
2022-11-08T09:20:24.247Z,12.30
2022-11-08T09:22:50.815Z,12.30
2022-11-08T09:25:18.364Z,12.40
2022-11-08T09:27:44.938Z,12.40
2022-11-08T09:30:11.574Z,12.40
2022-11-08T09:33:05.401Z,12.50
2022-11-08T09:35:24.958Z,12.50
2022-11-08T09:37:55.287Z,12.60
2022-11-08T09:40:27.379Z,12.60
2022-11-08T09:43:06.011Z,12.60
2022-11-08T09:45:46.879Z,12.70
2022-11-08T09:48:35.260Z,12.80
2022-11-08T09:51:15.482Z,12.80
2022-11-08T09:53:56.297Z,12.90
2022-11-08T09:56:32.434Z,12.90
2022-11-08T09:59:31.806Z,12.90
2022-11-08T10:01:58.492Z,13.00
2022-11-08T10:04:32.040Z,13.00
2022-11-08T10:07:15.142Z,13.00
2022-11-08T10:10:05.054Z,13.10
2022-11-08T10:12:57.568Z,13.10
2022-11-08T10:15:45.055Z,13.10
2022-11-08T10:18:33.601Z,13.20
2022-11-08T10:21:10.655Z,13.20
2022-11-08T10:23:44.786Z,13.20
2022-11-08T10:26:27.067Z,13.20
2022-11-08T10:28:59.579Z,13.30
2022-11-08T10:31:28.152Z,13.30
2022-11-08T10:33:57.351Z,13.30
2022-11-08T10:36:42.409Z,13.40
2022-11-08T10:39:09.073Z,13.40
2022-11-08T10:41:44.878Z,13.50
2022-11-08T10:44:21.111Z,13.50
2022-11-08T10:46:51.315Z,13.60
2022-11-08T10:49:33.133Z,13.60
2022-11-08T10:52:02.271Z,13.70
2022-11-08T10:54:50.190Z,13.70
2022-11-08T10:57:37.955Z,13.70
2022-11-08T11:00:22.519Z,13.80
2022-11-08T11:02:52.361Z,13.80
2022-11-08T11:05:18.870Z,13.80
2022-11-08T11:07:59.148Z,13.80
2022-11-08T11:10:28.269Z,13.90
2022-11-08T11:13:15.348Z,13.80
2022-11-08T11:16:05.773Z,13.90
2022-11-08T11:18:39.313Z,13.90
2022-11-08T11:21:19.593Z,13.90
2022-11-08T11:23:48.855Z,13.90
2022-11-08T11:26:30.718Z,13.90
2022-11-08T11:29:19.319Z,13.90
2022-11-08T11:31:51.367Z,13.90
2022-11-08T11:34:17.948Z,13.90
2022-11-08T11:36:50.930Z,13.90
2022-11-08T11:39:34.521Z,13.90
2022-11-08T11:42:31.142Z,14.00
2022-11-08T11:45:19.353Z,14.00
2022-11-08T11:47:54.329Z,14.00
2022-11-08T11:50:34.907Z,14.00
2022-11-08T11:53:05.099Z,14.00
2022-11-08T11:56:05.924Z,14.00
2022-11-08T11:58:42.847Z,14.00
2022-11-08T12:01:25.364Z,14.10
2022-11-08T12:03:54.738Z,14.10
2022-11-08T12:06:31.385Z,14.10
2022-11-08T12:09:14.324Z,14.20
2022-11-08T12:11:47.622Z,14.20
2022-11-08T12:14:33.184Z,14.20
2022-11-08T12:17:17.977Z,14.20
2022-11-08T12:19:55.521Z,14.20
2022-11-08T12:22:41.578Z,14.20
2022-11-08T12:25:18.837Z,14.20
2022-11-08T12:27:58.224Z,14.30
2022-11-08T12:30:36.863Z,14.30
2022-11-08T12:33:41.088Z,14.30
2022-11-08T12:36:26.185Z,14.30
2022-11-08T12:39:08.003Z,14.30
2022-11-08T12:42:00.565Z,14.30
2022-11-08T12:45:14.583Z,14.40
2022-11-08T12:48:33.383Z,14.40
2022-11-08T12:51:11.750Z,14.50
2022-11-08T12:54:17.464Z,14.50
2022-11-08T12:56:48.204Z,14.60
2022-11-08T12:59:28.612Z,14.60
2022-11-08T13:01:56.276Z,14.60
2022-11-08T13:04:33.190Z,14.70
2022-11-08T13:07:21.106Z,14.80
2022-11-08T13:10:00.630Z,14.80
2022-11-08T13:12:58.636Z,14.80
2022-11-08T13:15:26.193Z,14.90
2022-11-08T13:18:16.616Z,14.90
2022-11-08T13:20:46.326Z,14.90
2022-11-08T13:23:15.320Z,14.90
2022-11-08T13:25:43.747Z,14.90
2022-11-08T13:28:45.015Z,14.90
2022-11-08T13:31:31.386Z,14.90
2022-11-08T13:34:12.018Z,14.90
2022-11-08T13:37:05.352Z,14.90
2022-11-08T13:39:41.062Z,14.90
2022-11-08T13:42:16.862Z,14.90
2022-11-08T13:44:55.311Z,14.90
2022-11-08T13:47:34.051Z,14.90
2022-11-08T13:50:31.897Z,14.90
2022-11-08T13:53:18.695Z,14.80
2022-11-08T13:55:55.485Z,14.80
2022-11-08T13:58:39.932Z,14.80
2022-11-08T14:01:37.629Z,14.80
2022-11-08T14:04:24.371Z,14.80
2022-11-08T14:07:09.156Z,14.80
2022-11-08T14:09:38.859Z,14.80
2022-11-08T14:12:14.434Z,14.80
2022-11-08T14:14:55.767Z,14.80
2022-11-08T14:17:46.162Z,14.80
2022-11-08T14:20:35.604Z,14.80
2022-11-08T14:23:14.880Z,14.80
2022-11-08T14:25:46.351Z,14.80
2022-11-08T14:28:30.917Z,14.80
2022-11-08T14:30:59.056Z,14.80
2022-11-08T14:33:33.419Z,14.80
2022-11-08T14:36:09.463Z,14.80
2022-11-08T14:38:45.323Z,14.80
2022-11-08T14:41:16.129Z,14.90
2022-11-08T14:43:44.970Z,14.80
2022-11-08T14:46:23.558Z,14.90
2022-11-08T14:48:54.118Z,14.80
2022-11-08T14:51:21.376Z,14.80
2022-11-08T14:53:50.688Z,14.90
2022-11-08T14:56:24.199Z,14.90
2022-11-08T14:58:52.993Z,14.80
2022-11-08T15:01:23.183Z,14.90
2022-11-08T15:04:02.821Z,14.80
2022-11-08T15:06:35.970Z,14.90
2022-11-08T15:09:03.814Z,14.80
2022-11-08T15:11:42.436Z,14.80
2022-11-08T15:14:16.953Z,14.80
2022-11-08T15:16:46.488Z,14.80
2022-11-08T15:19:32.085Z,14.80
2022-11-08T15:22:00.675Z,14.80
2022-11-08T15:24:37.466Z,14.80
2022-11-08T15:27:10.274Z,14.80
2022-11-08T15:29:59.695Z,14.80
2022-11-08T15:32:27.038Z,14.80
2022-11-08T15:34:56.939Z,14.90
2022-11-08T15:37:31.990Z,14.80
2022-11-08T15:40:02.861Z,14.80
2022-11-08T15:42:30.097Z,14.80
2022-11-08T15:45:05.142Z,14.80
2022-11-08T15:47:37.601Z,14.80
2022-11-08T15:50:15.060Z,14.80
2022-11-08T15:52:42.303Z,14.80
2022-11-08T15:55:13.212Z,14.80
2022-11-08T15:57:42.381Z,14.80
2022-11-08T16:00:22.259Z,14.80
2022-11-08T16:02:49.056Z,14.80
2022-11-08T16:05:16.111Z,14.80
2022-11-08T16:07:44.167Z,14.80
2022-11-08T16:10:12.287Z,14.80
2022-11-08T16:12:42.327Z,14.80
2022-11-08T16:15:30.277Z,14.80
2022-11-08T16:17:56.952Z,14.80
2022-11-08T16:20:35.851Z,14.80
2022-11-08T16:23:04.896Z,14.80
2022-11-08T16:25:35.817Z,14.80
2022-11-08T16:28:09.069Z,14.70
2022-11-08T16:30:35.992Z,14.70
2022-11-08T16:33:16.241Z,14.70
2022-11-08T16:35:42.825Z,14.70
2022-11-08T16:38:10.679Z,14.70
2022-11-08T16:40:37.350Z,14.70
2022-11-08T16:43:03.888Z,14.70
2022-11-08T16:46:03.154Z,14.70
2022-11-08T16:48:26.817Z,14.70
2022-11-08T16:51:03.981Z,14.70
2022-11-08T16:53:31.337Z,14.70
2022-11-08T16:55:58.481Z,14.60
2022-11-08T16:58:25.968Z,14.70
2022-11-08T17:00:52.806Z,14.70
2022-11-08T17:03:22.936Z,14.70
2022-11-08T17:05:49.593Z,14.70
2022-11-08T17:08:17.207Z,14.60
2022-11-08T17:10:44.553Z,14.60
2022-11-08T17:13:19.863Z,14.60
2022-11-08T17:15:47.887Z,14.60
2022-11-08T17:18:20.151Z,14.60
2022-11-08T17:20:47.743Z,14.60
2022-11-08T17:23:14.588Z,14.60
2022-11-08T17:25:43.086Z,14.60
2022-11-08T17:28:11.325Z,14.60
2022-11-08T17:30:46.920Z,14.60
2022-11-08T17:33:13.865Z,14.60
2022-11-08T17:35:44.242Z,14.60
2022-11-08T17:38:11.542Z,14.60
2022-11-08T17:40:38.178Z,14.60
2022-11-08T17:43:04.926Z,14.60
2022-11-08T17:45:31.638Z,14.60
2022-11-08T17:48:00.720Z,14.60
2022-11-08T17:50:27.289Z,14.60
2022-11-08T17:52:54.811Z,14.60
2022-11-08T17:55:21.502Z,14.60
2022-11-08T17:57:48.200Z,14.60
2022-11-08T18:00:15.451Z,14.60
2022-11-08T18:02:44.392Z,14.60
2022-11-08T18:05:11.139Z,14.50
2022-11-08T18:07:38.516Z,14.60
2022-11-08T18:10:06.940Z,14.50
2022-11-08T18:12:33.758Z,14.50
2022-11-08T18:15:00.327Z,14.60
2022-11-08T18:17:27.428Z,14.50
2022-11-08T18:19:53.969Z,14.50
2022-11-08T18:22:20.581Z,14.50
2022-11-08T18:24:49.921Z,14.50
2022-11-08T18:27:17.104Z,14.50
2022-11-08T18:29:43.749Z,14.50
2022-11-08T18:32:12.950Z,14.50
2022-11-08T18:34:39.589Z,14.50
2022-11-08T18:37:06.171Z,14.50
2022-11-08T18:39:32.782Z,14.50
2022-11-08T18:41:59.371Z,14.50
2022-11-08T18:44:26.019Z,14.50
2022-11-08T18:46:52.695Z,14.50
2022-11-08T18:49:19.290Z,14.50
2022-11-08T18:51:51.899Z,14.50
2022-11-08T18:54:18.671Z,14.40
2022-11-08T18:56:45.444Z,14.50
2022-11-08T18:59:12.076Z,14.50
2022-11-08T19:01:38.744Z,14.50
2022-11-08T19:04:05.444Z,14.40
2022-11-08T19:06:32.162Z,14.40
2022-11-08T19:08:59.480Z,14.40
2022-11-08T19:11:26.052Z,14.40
2022-11-08T19:13:52.803Z,14.40
2022-11-08T19:16:20.647Z,14.40
2022-11-08T19:18:49.292Z,14.40
2022-11-08T19:21:21.593Z,14.40
2022-11-08T19:23:49.649Z,14.40
2022-11-08T19:26:26.805Z,14.40
2022-11-08T19:28:57.084Z,14.40
2022-11-08T19:31:25.429Z,14.40
2022-11-08T19:33:53.500Z,14.40
2022-11-08T19:36:28.458Z,14.30
2022-11-08T19:38:56.732Z,14.30
2022-11-08T19:41:25.475Z,14.30
2022-11-08T19:43:52.797Z,14.30
2022-11-08T19:46:22.281Z,14.30
2022-11-08T19:48:50.779Z,14.30
2022-11-08T19:51:23.365Z,14.30
2022-11-08T19:53:50.638Z,14.30
2022-11-08T19:56:19.771Z,14.30
2022-11-08T19:58:47.029Z,14.30
2022-11-08T20:01:19.180Z,14.30
2022-11-08T20:03:46.277Z,14.20
2022-11-08T20:06:18.348Z,14.20
2022-11-08T20:08:51.125Z,14.20
2022-11-08T20:11:27.494Z,14.20
2022-11-08T20:13:54.749Z,14.20
2022-11-08T20:16:26.833Z,14.20
2022-11-08T20:18:54.724Z,14.20
2022-11-08T20:21:21.764Z,14.20
2022-11-08T20:23:48.447Z,14.10
2022-11-08T20:26:21.818Z,14.10
2022-11-08T20:28:56.229Z,14.10
2022-11-08T20:31:24.650Z,14.10
2022-11-08T20:33:53.538Z,14.10
2022-11-08T20:36:22.651Z,14.10
2022-11-08T20:38:50.305Z,14.10
2022-11-08T20:41:17.958Z,14.10
2022-11-08T20:43:46.243Z,14.10
2022-11-08T20:46:18.060Z,14.10
2022-11-08T20:48:50.817Z,14.10
2022-11-08T20:51:19.741Z,14.00
2022-11-08T20:53:47.331Z,14.00
2022-11-08T20:56:16.283Z,14.00
2022-11-08T20:58:44.306Z,14.00
2022-11-08T21:01:13.461Z,14.00
2022-11-08T21:03:44.906Z,14.00
2022-11-08T21:06:13.926Z,14.00
2022-11-08T21:11:27.570Z,14.00
2022-11-08T21:13:54.173Z,14.00
2022-11-08T21:16:29.867Z,14.00
2022-11-08T21:18:59.123Z,14.00
2022-11-08T21:21:26.589Z,14.00
2022-11-08T21:23:54.452Z,14.00
2022-11-08T21:26:22.016Z,13.90
2022-11-08T21:28:49.081Z,13.90
2022-11-08T21:31:15.882Z,14.00
2022-11-08T21:33:42.689Z,13.90
2022-11-08T21:36:10.187Z,13.90
2022-11-08T21:38:38.197Z,14.00
2022-11-08T21:41:07.237Z,13.90
2022-11-08T21:43:43.331Z,13.90
2022-11-08T21:46:19.362Z,14.00
2022-11-08T21:48:46.367Z,14.00
2022-11-08T21:51:13.440Z,14.00
2022-11-08T21:53:49.436Z,13.90
2022-11-08T21:56:21.167Z,14.00
2022-11-08T21:58:47.779Z,13.90
2022-11-08T22:01:14.659Z,13.90
2022-11-08T22:03:41.322Z,13.90
2022-11-08T22:06:08.335Z,13.90
2022-11-08T22:08:34.952Z,13.90
2022-11-08T22:11:01.537Z,13.90
2022-11-08T22:13:28.182Z,13.90
2022-11-08T22:15:54.775Z,13.90
2022-11-08T22:18:36.325Z,13.90
2022-11-08T22:21:26.571Z,13.90
2022-11-08T22:23:53.153Z,13.90
2022-11-08T22:26:19.919Z,13.80
2022-11-08T22:28:46.509Z,13.80
2022-11-08T22:31:13.187Z,13.80
2022-11-08T22:33:39.899Z,13.80
2022-11-08T22:36:06.874Z,13.80
2022-11-08T22:38:33.633Z,13.80
2022-11-08T22:41:00.393Z,13.80
2022-11-08T22:43:27.303Z,13.80
2022-11-08T22:45:53.961Z,13.80
2022-11-08T22:48:20.935Z,13.80
2022-11-08T22:50:47.638Z,13.80
2022-11-08T22:53:14.265Z,13.80
2022-11-08T22:55:40.847Z,13.80
2022-11-08T22:58:07.407Z,13.80
2022-11-08T23:00:34.023Z,13.80
2022-11-08T23:03:00.621Z,13.80
2022-11-08T23:05:29.294Z,13.80
2022-11-08T23:07:55.846Z,13.70
2022-11-08T23:10:25.334Z,13.70
2022-11-08T23:13:10.318Z,13.70
2022-11-08T23:15:55.623Z,13.70
2022-11-08T23:18:23.459Z,13.70
2022-11-08T23:21:12.254Z,13.70
2022-11-08T23:23:57.517Z,13.70
2022-11-08T23:26:44.081Z,13.70
2022-11-08T23:29:40.652Z,13.70
2022-11-08T23:32:07.254Z,13.70
2022-11-08T23:34:33.807Z,13.70
2022-11-08T23:37:00.558Z,13.70
2022-11-08T23:39:27.118Z,13.70
2022-11-08T23:42:12.473Z,13.60
2022-11-08T23:44:40.129Z,13.60
2022-11-08T23:47:06.773Z,13.70
2022-11-08T23:49:33.588Z,13.60
2022-11-08T23:52:00.241Z,13.60
2022-11-08T23:54:26.863Z,13.60
2022-11-08T23:56:53.443Z,13.60
2022-11-08T23:59:20.080Z,13.60
